EZY61JB EGKK-LFMT
Flight info
| Callsign | EZY61JB |
|---|---|
| Flight time | 1h 20m |
| Altitude | 33000 |
| Route | SFD Y47 BENBO UL612 VEULE DCT DEKOD DCT DISAK DCT DIRMO DCT ETAMO DCT ADEKA DCT MOKDI DCT MEN |
| Aircraft | A320/M-SDE3FGHIRWY/LB1 |
Departure
| Time | 2026-05-03 21:08 |
|---|---|
| Airport | London Gatwick Airport (EGKK) |
Arrival
| Time | 2026-05-03 22:29 |
|---|---|
| Airport | Montpellier-Méditerranée Airport (LFMT) |
| Time | Latitude | Longitude | Altitude | Speed | Heading |
|---|---|---|---|---|---|
| 2026-05-03 20:16 | 51.15593 | -0.17627 | 205 ft | 0 kts | 347° |
| 2026-05-03 20:40 | 51.15590 | -0.17625 | 217 ft | 2 kts | 347° |
| 2026-05-03 20:40 | 51.15589 | -0.17625 | 217 ft | 0 kts | 348° |
| 2026-05-03 20:51 | 51.15576 | -0.17621 | 206 ft | 2 kts | 355° |
| 2026-05-03 20:51 | 51.15559 | -0.17619 | 215 ft | 2 kts | 2° |
| 2026-05-03 20:52 | 51.15543 | -0.17622 | 208 ft | 2 kts | 20° |
| 2026-05-03 20:52 | 51.15528 | -0.17634 | 214 ft | 2 kts | 52° |
| 2026-05-03 20:52 | 51.15520 | -0.17657 | 208 ft | 2 kts | 75° |
| 2026-05-03 20:52 | 51.15518 | -0.17669 | 215 ft | 0 kts | 78° |
| 2026-05-03 20:54 | 51.15523 | -0.17627 | 205 ft | 7 kts | 78° |
| 2026-05-03 20:54 | 51.15532 | -0.17563 | 207 ft | 6 kts | 76° |
| 2026-05-03 20:55 | 51.15541 | -0.17490 | 205 ft | 6 kts | 87° |
| 2026-05-03 20:55 | 51.15519 | -0.17435 | 212 ft | 8 kts | 150° |
| 2026-05-03 20:55 | 51.15461 | -0.17412 | 205 ft | 8 kts | 167° |
| 2026-05-03 20:55 | 51.15412 | -0.17395 | 205 ft | 6 kts | 167° |
| 2026-05-03 20:56 | 51.15361 | -0.17378 | 213 ft | 12 kts | 168° |
| 2026-05-03 20:56 | 51.15288 | -0.17355 | 214 ft | 10 kts | 168° |
| 2026-05-03 20:56 | 51.15233 | -0.17299 | 213 ft | 8 kts | 147° |
| 2026-05-03 20:56 | 51.15192 | -0.17253 | 209 ft | 6 kts | 136° |
| 2026-05-03 20:57 | 51.15188 | -0.17153 | 217 ft | 12 kts | 78° |
| 2026-05-03 20:57 | 51.15205 | -0.17031 | 213 ft | 11 kts | 77° |
| 2026-05-03 20:57 | 51.15217 | -0.16946 | 215 ft | 7 kts | 77° |
| 2026-05-03 20:57 | 51.15224 | -0.16880 | 210 ft | 5 kts | 86° |
| 2026-05-03 20:58 | 51.15224 | -0.16878 | 210 ft | 0 kts | 86° |
| 2026-05-03 21:03 | 51.15224 | -0.16865 | 212 ft | 1 kts | 92° |
| 2026-05-03 21:04 | 51.15224 | -0.16862 | 211 ft | 0 kts | 92° |
| 2026-05-03 21:06 | 51.15209 | -0.16814 | 212 ft | 8 kts | 135° |
| 2026-05-03 21:07 | 51.15157 | -0.16794 | 206 ft | 9 kts | 180° |
| 2026-05-03 21:07 | 51.15111 | -0.16887 | 212 ft | 11 kts | 257° |
| 2026-05-03 21:07 | 51.15101 | -0.16961 | 217 ft | 4 kts | 257° |
| 2026-05-03 21:07 | 51.15078 | -0.17134 | 210 ft | 45 kts | 258° |
| 2026-05-03 21:08 | 51.14958 | -0.17990 | 209 ft | 111 kts | 257° |
| 2026-05-03 21:08 | 51.14745 | -0.19469 | 227 ft | 159 kts | 256° |
| 2026-05-03 21:08 | 51.14513 | -0.21219 | 817 ft | 161 kts | 257° |
| 2026-05-03 21:08 | 51.14276 | -0.22966 | 1533 ft | 163 kts | 258° |
| 2026-05-03 21:09 | 51.14020 | -0.24819 | 1926 ft | 182 kts | 257° |
| 2026-05-03 21:09 | 51.13728 | -0.26907 | 2220 ft | 204 kts | 257° |
| 2026-05-03 21:09 | 51.13406 | -0.29209 | 2612 ft | 222 kts | 257° |
| 2026-05-03 21:09 | 51.13067 | -0.31639 | 3361 ft | 227 kts | 257° |
| 2026-05-03 21:10 | 51.12723 | -0.34115 | 4190 ft | 230 kts | 257° |
| 2026-05-03 21:10 | 51.12373 | -0.36617 | 5025 ft | 233 kts | 257° |
| 2026-05-03 21:10 | 51.11974 | -0.39143 | 5789 ft | 240 kts | 249° |
| 2026-05-03 21:10 | 51.11027 | -0.41442 | 6209 ft | 260 kts | 220° |
| 2026-05-03 21:11 | 51.09995 | -0.42452 | 6623 ft | 267 kts | 200° |
| 2026-05-03 21:11 | 51.07531 | -0.42482 | 7685 ft | 275 kts | 160° |
| 2026-05-03 21:11 | 51.06434 | -0.41678 | 8213 ft | 277 kts | 154° |
| 2026-05-03 21:11 | 51.04655 | -0.40329 | 9099 ft | 280 kts | 156° |
| 2026-05-03 21:12 | 51.02865 | -0.39063 | 9936 ft | 284 kts | 158° |
| 2026-05-03 21:12 | 51.01007 | -0.37784 | 10377 ft | 302 kts | 158° |
| 2026-05-03 21:12 | 50.98999 | -0.36412 | 10611 ft | 326 kts | 158° |
| 2026-05-03 21:12 | 50.96842 | -0.34928 | 10779 ft | 349 kts | 158° |
| 2026-05-03 21:13 | 50.94570 | -0.33353 | 11203 ft | 361 kts | 158° |
| 2026-05-03 21:13 | 50.92249 | -0.31731 | 11877 ft | 366 kts | 158° |
| 2026-05-03 21:13 | 50.89908 | -0.30089 | 12595 ft | 369 kts | 157° |
| 2026-05-03 21:13 | 50.87581 | -0.28456 | 13301 ft | 373 kts | 158° |
| 2026-05-03 21:14 | 50.85198 | -0.26779 | 13980 ft | 376 kts | 157° |
| 2026-05-03 21:14 | 50.82766 | -0.25069 | 14593 ft | 379 kts | 158° |
| 2026-05-03 21:14 | 50.80377 | -0.23392 | 15182 ft | 382 kts | 158° |
| 2026-05-03 21:14 | 50.77929 | -0.21682 | 15767 ft | 386 kts | 158° |
| 2026-05-03 21:15 | 50.75464 | -0.19965 | 16347 ft | 389 kts | 158° |
| 2026-05-03 21:15 | 50.72972 | -0.18229 | 16914 ft | 392 kts | 158° |
| 2026-05-03 21:15 | 50.70472 | -0.16492 | 17478 ft | 395 kts | 158° |
| 2026-05-03 21:15 | 50.67948 | -0.14740 | 18044 ft | 398 kts | 158° |
| 2026-05-03 21:16 | 50.65405 | -0.12974 | 18542 ft | 401 kts | 159° |
| 2026-05-03 21:16 | 50.62850 | -0.11206 | 19037 ft | 403 kts | 159° |
| 2026-05-03 21:16 | 50.61908 | -0.10555 | 19215 ft | 404 kts | 159° |
| 2026-05-03 21:16 | 50.60473 | -0.09563 | 19504 ft | 405 kts | 159° |
| 2026-05-03 21:17 | 50.57887 | -0.07776 | 19982 ft | 407 kts | 159° |
| 2026-05-03 21:17 | 50.55353 | -0.06022 | 20464 ft | 409 kts | 159° |
| 2026-05-03 21:17 | 50.55292 | -0.05979 | 20474 ft | 409 kts | 159° |
| 2026-05-03 21:17 | 50.52681 | -0.04173 | 20947 ft | 411 kts | 159° |
| 2026-05-03 21:18 | 50.50060 | -0.02365 | 21412 ft | 413 kts | 159° |
| 2026-05-03 21:18 | 50.47414 | -0.00544 | 21871 ft | 415 kts | 159° |
| 2026-05-03 21:18 | 50.44844 | 0.01391 | 22298 ft | 420 kts | 153° |
| 2026-05-03 21:18 | 50.42366 | 0.03881 | 22720 ft | 424 kts | 150° |
| 2026-05-03 21:19 | 50.39901 | 0.06441 | 23139 ft | 426 kts | 150° |
| 2026-05-03 21:19 | 50.37427 | 0.09004 | 23548 ft | 428 kts | 150° |
| 2026-05-03 21:19 | 50.34933 | 0.11581 | 23901 ft | 430 kts | 150° |
| 2026-05-03 21:19 | 50.32430 | 0.14162 | 24254 ft | 432 kts | 150° |
| 2026-05-03 21:20 | 50.29913 | 0.16752 | 24601 ft | 434 kts | 150° |
| 2026-05-03 21:20 | 50.27386 | 0.19348 | 24939 ft | 435 kts | 150° |
| 2026-05-03 21:20 | 50.24848 | 0.21953 | 25272 ft | 437 kts | 150° |
| 2026-05-03 21:20 | 50.22305 | 0.24566 | 25597 ft | 439 kts | 150° |
| 2026-05-03 21:21 | 50.19751 | 0.27188 | 25914 ft | 440 kts | 151° |
| 2026-05-03 21:21 | 50.17186 | 0.29820 | 26223 ft | 442 kts | 151° |
| 2026-05-03 21:21 | 50.14611 | 0.32464 | 26527 ft | 444 kts | 151° |
| 2026-05-03 21:21 | 50.12026 | 0.35118 | 26830 ft | 445 kts | 151° |
| 2026-05-03 21:22 | 50.09436 | 0.37776 | 27153 ft | 446 kts | 151° |
| 2026-05-03 21:22 | 50.06849 | 0.40426 | 27586 ft | 444 kts | 152° |
| 2026-05-03 21:22 | 50.04272 | 0.43065 | 28042 ft | 443 kts | 152° |
| 2026-05-03 21:22 | 50.01704 | 0.45692 | 28498 ft | 441 kts | 152° |
| 2026-05-03 21:23 | 49.99137 | 0.48314 | 28940 ft | 439 kts | 152° |
| 2026-05-03 21:23 | 49.96623 | 0.50879 | 29390 ft | 437 kts | 152° |
| 2026-05-03 21:23 | 49.94079 | 0.53469 | 29828 ft | 436 kts | 152° |
| 2026-05-03 21:23 | 49.91549 | 0.56043 | 30251 ft | 434 kts | 153° |
| 2026-05-03 21:24 | 49.89027 | 0.58605 | 30616 ft | 433 kts | 153° |
| 2026-05-03 21:24 | 49.86511 | 0.61149 | 30968 ft | 431 kts | 153° |
| 2026-05-03 21:24 | 49.83991 | 0.63675 | 31325 ft | 430 kts | 154° |
| 2026-05-03 21:24 | 49.81464 | 0.66162 | 31691 ft | 429 kts | 154° |
| 2026-05-03 21:25 | 49.78948 | 0.68608 | 32041 ft | 427 kts | 154° |
| 2026-05-03 21:25 | 49.76423 | 0.71049 | 32409 ft | 426 kts | 154° |
| 2026-05-03 21:25 | 49.73910 | 0.73474 | 32765 ft | 425 kts | 155° |
| 2026-05-03 21:25 | 49.71403 | 0.75890 | 32922 ft | 427 kts | 155° |
| 2026-05-03 21:26 | 49.66340 | 0.80770 | 32944 ft | 430 kts | 155° |
| 2026-05-03 21:26 | 49.61295 | 0.85655 | 32950 ft | 430 kts | 155° |
| 2026-05-03 21:27 | 49.56231 | 0.90549 | 32961 ft | 429 kts | 155° |
| 2026-05-03 21:27 | 49.51163 | 0.95429 | 32961 ft | 429 kts | 155° |
| 2026-05-03 21:28 | 49.46105 | 1.00274 | 32961 ft | 428 kts | 155° |
| 2026-05-03 21:28 | 49.41049 | 1.05112 | 32962 ft | 428 kts | 155° |
| 2026-05-03 21:29 | 49.35991 | 1.09940 | 32964 ft | 427 kts | 155° |
| 2026-05-03 21:29 | 49.30945 | 1.14751 | 32964 ft | 427 kts | 155° |
| 2026-05-03 21:30 | 49.25899 | 1.19538 | 32959 ft | 426 kts | 156° |
| 2026-05-03 21:30 | 49.20856 | 1.24312 | 32954 ft | 425 kts | 156° |
| 2026-05-03 21:31 | 49.15827 | 1.29069 | 32943 ft | 425 kts | 156° |
| 2026-05-03 21:31 | 49.10831 | 1.33772 | 32937 ft | 424 kts | 156° |
| 2026-05-03 21:32 | 49.05812 | 1.38496 | 32934 ft | 424 kts | 156° |
| 2026-05-03 21:32 | 49.00795 | 1.43218 | 32935 ft | 423 kts | 156° |
| 2026-05-03 21:33 | 48.95780 | 1.47915 | 32926 ft | 423 kts | 156° |
| 2026-05-03 21:33 | 48.90769 | 1.52593 | 32926 ft | 423 kts | 156° |
| 2026-05-03 21:34 | 48.85758 | 1.57263 | 32931 ft | 423 kts | 157° |
| 2026-05-03 21:34 | 48.80734 | 1.61921 | 32927 ft | 423 kts | 157° |
| 2026-05-03 21:35 | 48.75712 | 1.66580 | 32946 ft | 424 kts | 157° |
| 2026-05-03 21:35 | 48.70681 | 1.71249 | 32939 ft | 424 kts | 157° |
| 2026-05-03 21:36 | 48.65638 | 1.75904 | 32940 ft | 425 kts | 157° |
| 2026-05-03 21:36 | 48.60576 | 1.80558 | 32936 ft | 426 kts | 157° |
| 2026-05-03 21:37 | 48.55511 | 1.85212 | 32940 ft | 427 kts | 157° |
| 2026-05-03 21:37 | 48.50424 | 1.89875 | 32935 ft | 428 kts | 157° |
| 2026-05-03 21:38 | 48.45318 | 1.94539 | 32930 ft | 429 kts | 157° |
| 2026-05-03 21:38 | 48.40237 | 1.99174 | 32930 ft | 430 kts | 157° |
| 2026-05-03 21:39 | 48.35103 | 2.03846 | 32931 ft | 432 kts | 157° |
| 2026-05-03 21:39 | 48.29920 | 2.08374 | 32933 ft | 426 kts | 163° |
| 2026-05-03 21:40 | 48.24375 | 2.10838 | 32940 ft | 410 kts | 179° |
| 2026-05-03 21:40 | 48.18717 | 2.12020 | 32948 ft | 411 kts | 179° |
| 2026-05-03 21:41 | 48.13040 | 2.13154 | 32954 ft | 409 kts | 182° |
| 2026-05-03 21:41 | 48.07372 | 2.13512 | 32964 ft | 408 kts | 184° |
| 2026-05-03 21:42 | 48.01697 | 2.13856 | 32972 ft | 408 kts | 184° |
| 2026-05-03 21:42 | 47.96014 | 2.14193 | 32977 ft | 409 kts | 184° |
| 2026-05-03 21:43 | 47.90333 | 2.14519 | 32978 ft | 409 kts | 184° |
| 2026-05-03 21:43 | 47.84645 | 2.14846 | 32979 ft | 409 kts | 184° |
| 2026-05-03 21:44 | 47.78943 | 2.15178 | 32981 ft | 410 kts | 184° |
| 2026-05-03 21:44 | 47.73245 | 2.15517 | 32974 ft | 410 kts | 184° |
| 2026-05-03 21:45 | 47.67579 | 2.15845 | 32967 ft | 410 kts | 184° |
| 2026-05-03 21:45 | 47.61874 | 2.16182 | 32966 ft | 410 kts | 184° |
| 2026-05-03 21:46 | 47.56157 | 2.16519 | 32965 ft | 410 kts | 184° |
| 2026-05-03 21:46 | 47.50454 | 2.16848 | 32962 ft | 410 kts | 184° |
| 2026-05-03 21:47 | 47.44748 | 2.17166 | 32965 ft | 410 kts | 184° |
| 2026-05-03 21:47 | 47.39074 | 2.17487 | 32972 ft | 411 kts | 184° |
| 2026-05-03 21:48 | 47.33362 | 2.17812 | 32968 ft | 411 kts | 184° |
| 2026-05-03 21:48 | 47.27643 | 2.18148 | 32963 ft | 411 kts | 184° |
| 2026-05-03 21:49 | 47.21922 | 2.18484 | 32976 ft | 411 kts | 183° |
| 2026-05-03 21:49 | 47.16210 | 2.18813 | 32969 ft | 411 kts | 183° |
| 2026-05-03 21:50 | 47.10487 | 2.19215 | 32973 ft | 414 kts | 178° |
| 2026-05-03 21:50 | 47.04896 | 2.21558 | 32973 ft | 427 kts | 165° |
| 2026-05-03 21:51 | 46.99386 | 2.24804 | 32978 ft | 427 kts | 165° |
| 2026-05-03 21:51 | 46.93852 | 2.28044 | 32982 ft | 428 kts | 165° |
| 2026-05-03 21:52 | 46.88329 | 2.31248 | 32982 ft | 428 kts | 165° |
| 2026-05-03 21:52 | 46.82868 | 2.34845 | 32983 ft | 437 kts | 154° |
| 2026-05-03 21:53 | 46.77749 | 2.39750 | 32981 ft | 439 kts | 153° |
| 2026-05-03 21:53 | 46.72629 | 2.44640 | 32979 ft | 440 kts | 153° |
| 2026-05-03 21:54 | 46.67525 | 2.49478 | 32981 ft | 441 kts | 153° |
| 2026-05-03 21:54 | 46.62373 | 2.54341 | 32985 ft | 441 kts | 153° |
| 2026-05-03 21:55 | 46.57220 | 2.59213 | 32990 ft | 442 kts | 153° |
| 2026-05-03 21:55 | 46.52068 | 2.64085 | 32993 ft | 442 kts | 153° |
| 2026-05-03 21:56 | 46.46891 | 2.68961 | 32998 ft | 442 kts | 153° |
| 2026-05-03 21:56 | 46.41727 | 2.73815 | 32999 ft | 443 kts | 153° |
| 2026-05-03 21:57 | 46.36557 | 2.78671 | 33003 ft | 443 kts | 153° |
| 2026-05-03 21:57 | 46.31418 | 2.83485 | 33003 ft | 443 kts | 153° |
| 2026-05-03 21:58 | 46.26230 | 2.88317 | 33003 ft | 443 kts | 153° |
| 2026-05-03 21:58 | 46.21043 | 2.93138 | 33002 ft | 444 kts | 153° |
| 2026-05-03 21:59 | 46.15848 | 2.97965 | 33001 ft | 444 kts | 153° |
| 2026-05-03 21:59 | 46.10657 | 3.02781 | 32999 ft | 444 kts | 153° |
| 2026-05-03 22:00 | 46.06333 | 3.06784 | 33003 ft | 444 kts | 153° |
| 2026-05-03 22:00 | 46.00286 | 3.12364 | 33009 ft | 444 kts | 153° |
| 2026-05-03 22:01 | 45.95806 | 3.15955 | 33008 ft | 435 kts | 164° |
| 2026-05-03 22:01 | 45.90022 | 3.17877 | 33012 ft | 422 kts | 181° |
| 2026-05-03 22:02 | 45.84183 | 3.17870 | 33010 ft | 420 kts | 185° |
| 2026-05-03 22:02 | 45.78376 | 3.17784 | 33017 ft | 420 kts | 185° |
| 2026-05-03 22:03 | 45.72537 | 3.17704 | 33009 ft | 419 kts | 185° |
| 2026-05-03 22:03 | 45.66703 | 3.17631 | 33010 ft | 420 kts | 185° |
| 2026-05-03 22:04 | 45.60860 | 3.17556 | 33004 ft | 420 kts | 185° |
| 2026-05-03 22:04 | 45.55020 | 3.17471 | 33008 ft | 420 kts | 185° |
| 2026-05-03 22:05 | 45.49188 | 3.18432 | 33008 ft | 428 kts | 172° |
| 2026-05-03 22:05 | 45.43375 | 3.20357 | 33010 ft | 428 kts | 172° |
| 2026-05-03 22:06 | 45.37573 | 3.22311 | 33010 ft | 428 kts | 172° |
| 2026-05-03 22:06 | 45.31771 | 3.24247 | 33018 ft | 429 kts | 172° |
| 2026-05-03 22:07 | 45.25957 | 3.26170 | 33019 ft | 429 kts | 172° |
| 2026-05-03 22:07 | 45.20138 | 3.28091 | 33024 ft | 430 kts | 172° |
| 2026-05-03 22:08 | 45.14303 | 3.30019 | 33026 ft | 430 kts | 171° |
| 2026-05-03 22:08 | 45.08504 | 3.31936 | 33027 ft | 431 kts | 172° |
| 2026-05-03 22:09 | 45.02657 | 3.33855 | 33027 ft | 432 kts | 172° |
| 2026-05-03 22:10 | 44.93871 | 3.36732 | 32625 ft | 433 kts | 171° |
| 2026-05-03 22:10 | 44.90932 | 3.37693 | 32003 ft | 434 kts | 171° |
| 2026-05-03 22:10 | 44.87965 | 3.38665 | 30952 ft | 440 kts | 171° |
| 2026-05-03 22:10 | 44.84974 | 3.39645 | 29982 ft | 443 kts | 171° |
| 2026-05-03 22:11 | 44.81994 | 3.40615 | 28830 ft | 447 kts | 171° |
| 2026-05-03 22:11 | 44.78918 | 3.41616 | 27725 ft | 449 kts | 171° |
| 2026-05-03 22:11 | 44.75860 | 3.42609 | 26561 ft | 453 kts | 170° |
| 2026-05-03 22:11 | 44.72780 | 3.43606 | 25367 ft | 457 kts | 170° |
| 2026-05-03 22:12 | 44.69708 | 3.44603 | 24229 ft | 461 kts | 169° |
| 2026-05-03 22:12 | 44.66571 | 3.45622 | 22996 ft | 464 kts | 169° |
| 2026-05-03 22:12 | 44.63392 | 3.46654 | 22100 ft | 459 kts | 169° |
| 2026-05-03 22:12 | 44.60342 | 3.47645 | 21203 ft | 454 kts | 169° |
| 2026-05-03 22:13 | 44.57287 | 3.48637 | 20394 ft | 448 kts | 169° |
| 2026-05-03 22:13 | 44.54263 | 3.49615 | 19736 ft | 441 kts | 169° |
| 2026-05-03 22:13 | 44.51318 | 3.50571 | 18757 ft | 428 kts | 169° |
| 2026-05-03 22:13 | 44.48467 | 3.51497 | 17891 ft | 411 kts | 169° |
| 2026-05-03 22:14 | 44.45754 | 3.52377 | 17186 ft | 392 kts | 169° |
| 2026-05-03 22:14 | 44.43098 | 3.53232 | 16513 ft | 391 kts | 169° |
| 2026-05-03 22:14 | 44.40461 | 3.54074 | 15847 ft | 388 kts | 169° |
| 2026-05-03 22:14 | 44.37834 | 3.54909 | 15201 ft | 386 kts | 169° |
| 2026-05-03 22:15 | 44.35375 | 3.55692 | 14598 ft | 385 kts | 169° |
| 2026-05-03 22:15 | 44.32622 | 3.56572 | 13947 ft | 383 kts | 168° |
| 2026-05-03 22:15 | 44.30028 | 3.57401 | 13298 ft | 380 kts | 168° |
| 2026-05-03 22:15 | 44.27469 | 3.58222 | 12696 ft | 375 kts | 168° |
| 2026-05-03 22:16 | 44.24933 | 3.59035 | 12093 ft | 371 kts | 168° |
| 2026-05-03 22:16 | 44.22428 | 3.59834 | 11528 ft | 367 kts | 168° |
| 2026-05-03 22:16 | 44.19985 | 3.60615 | 11350 ft | 351 kts | 168° |
| 2026-05-03 22:16 | 44.17660 | 3.61357 | 11224 ft | 335 kts | 168° |
| 2026-05-03 22:17 | 44.15473 | 3.62057 | 11094 ft | 318 kts | 168° |
| 2026-05-03 22:17 | 44.13378 | 3.62725 | 10958 ft | 293 kts | 169° |
| 2026-05-03 22:17 | 44.11444 | 3.63340 | 10582 ft | 281 kts | 169° |
| 2026-05-03 22:17 | 44.09565 | 3.63936 | 10296 ft | 275 kts | 169° |
| 2026-05-03 22:18 | 44.07704 | 3.64523 | 10053 ft | 274 kts | 168° |
| 2026-05-03 22:18 | 44.05835 | 3.65112 | 9918 ft | 274 kts | 168° |
| 2026-05-03 22:18 | 44.03984 | 3.65695 | 9785 ft | 272 kts | 169° |
| 2026-05-03 22:18 | 44.02146 | 3.66275 | 9648 ft | 271 kts | 168° |
| 2026-05-03 22:19 | 44.00335 | 3.66849 | 9519 ft | 270 kts | 168° |
| 2026-05-03 22:19 | 43.98488 | 3.67436 | 9384 ft | 268 kts | 168° |
| 2026-05-03 22:19 | 43.96676 | 3.68014 | 9253 ft | 267 kts | 168° |
| 2026-05-03 22:19 | 43.94860 | 3.68592 | 8875 ft | 270 kts | 168° |
| 2026-05-03 22:20 | 43.93062 | 3.69160 | 8483 ft | 268 kts | 168° |
| 2026-05-03 22:20 | 43.91210 | 3.69739 | 8117 ft | 265 kts | 168° |
| 2026-05-03 22:20 | 43.89426 | 3.70298 | 7759 ft | 263 kts | 168° |
| 2026-05-03 22:20 | 43.87648 | 3.70857 | 7387 ft | 260 kts | 168° |
| 2026-05-03 22:21 | 43.85909 | 3.71407 | 7022 ft | 258 kts | 167° |
| 2026-05-03 22:21 | 43.84166 | 3.71959 | 6649 ft | 256 kts | 167° |
| 2026-05-03 22:21 | 43.82454 | 3.72501 | 6264 ft | 255 kts | 167° |
| 2026-05-03 22:21 | 43.80734 | 3.73043 | 5724 ft | 252 kts | 167° |
| 2026-05-03 22:22 | 43.79024 | 3.73579 | 5051 ft | 251 kts | 166° |
| 2026-05-03 22:22 | 43.77336 | 3.74105 | 4468 ft | 245 kts | 166° |
| 2026-05-03 22:22 | 43.75734 | 3.74606 | 4236 ft | 227 kts | 166° |
| 2026-05-03 22:22 | 43.74259 | 3.75068 | 4113 ft | 210 kts | 166° |
| 2026-05-03 22:23 | 43.72885 | 3.75499 | 4008 ft | 194 kts | 166° |
| 2026-05-03 22:23 | 43.71605 | 3.75900 | 3933 ft | 186 kts | 165° |
| 2026-05-03 22:23 | 43.70355 | 3.76293 | 3853 ft | 183 kts | 165° |
| 2026-05-03 22:23 | 43.69146 | 3.76672 | 3793 ft | 170 kts | 165° |
| 2026-05-03 22:24 | 43.68105 | 3.77238 | 3698 ft | 152 kts | 147° |
| 2026-05-03 22:24 | 43.67344 | 3.78163 | 3582 ft | 142 kts | 131° |
| 2026-05-03 22:24 | 43.66788 | 3.79254 | 3355 ft | 136 kts | 127° |
| 2026-05-03 22:24 | 43.66260 | 3.80306 | 3141 ft | 131 kts | 127° |
| 2026-05-03 22:25 | 43.65741 | 3.81344 | 2939 ft | 130 kts | 127° |
| 2026-05-03 22:25 | 43.65227 | 3.82368 | 2768 ft | 129 kts | 127° |
| 2026-05-03 22:25 | 43.64714 | 3.83390 | 2583 ft | 129 kts | 127° |
| 2026-05-03 22:25 | 43.64213 | 3.84391 | 2401 ft | 128 kts | 127° |
| 2026-05-03 22:26 | 43.63709 | 3.85399 | 2182 ft | 127 kts | 127° |
| 2026-05-03 22:26 | 43.63204 | 3.86408 | 1971 ft | 127 kts | 127° |
| 2026-05-03 22:26 | 43.62703 | 3.87411 | 1766 ft | 127 kts | 127° |
| 2026-05-03 22:26 | 43.62200 | 3.88412 | 1554 ft | 127 kts | 127° |
| 2026-05-03 22:27 | 43.61697 | 3.89411 | 1344 ft | 127 kts | 126° |
| 2026-05-03 22:27 | 43.61195 | 3.90411 | 1136 ft | 127 kts | 126° |
| 2026-05-03 22:27 | 43.60711 | 3.91374 | 943 ft | 128 kts | 126° |
| 2026-05-03 22:27 | 43.60202 | 3.92386 | 747 ft | 128 kts | 126° |
| 2026-05-03 22:28 | 43.59699 | 3.93392 | 533 ft | 126 kts | 125° |
| 2026-05-03 22:28 | 43.59210 | 3.94386 | 300 ft | 124 kts | 125° |
| 2026-05-03 22:28 | 43.58730 | 3.95351 | 133 ft | 124 kts | 125° |
| 2026-05-03 22:28 | 43.58239 | 3.96314 | 21 ft | 111 kts | 125° |
| 2026-05-03 22:29 | 43.57931 | 3.96923 | 14 ft | 35 kts | 124° |
| 2026-05-03 22:29 | 43.57885 | 3.97015 | 13 ft | 9 kts | 125° |
| 2026-05-03 22:29 | 43.57827 | 3.97055 | 13 ft | 10 kts | 186° |
| 2026-05-03 22:29 | 43.57773 | 3.97013 | 14 ft | 8 kts | 215° |
| 2026-05-03 22:30 | 43.57734 | 3.96964 | 13 ft | 8 kts | 240° |
| 2026-05-03 22:30 | 43.57749 | 3.96883 | 12 ft | 11 kts | 304° |
| 2026-05-03 22:30 | 43.57791 | 3.96800 | 12 ft | 10 kts | 305° |
| 2026-05-03 22:30 | 43.57827 | 3.96729 | 12 ft | 9 kts | 304° |
| 2026-05-03 22:31 | 43.57880 | 3.96623 | 12 ft | 15 kts | 304° |
| 2026-05-03 22:31 | 43.57931 | 3.96522 | 15 ft | 11 kts | 304° |
| 2026-05-03 22:31 | 43.57969 | 3.96444 | 15 ft | 9 kts | 304° |
| 2026-05-03 22:31 | 43.58004 | 3.96375 | 14 ft | 9 kts | 305° |
| 2026-05-03 22:32 | 43.58039 | 3.96309 | 15 ft | 9 kts | 306° |
| 2026-05-03 22:32 | 43.58029 | 3.96253 | 17 ft | 6 kts | 221° |
| 2026-05-03 22:32 | 43.57986 | 3.96211 | 15 ft | 7 kts | 216° |
| 2026-05-03 22:32 | 43.57967 | 3.96156 | 15 ft | 6 kts | 265° |
| 2026-05-03 22:33 | 43.57984 | 3.96098 | 16 ft | 8 kts | 303° |
| 2026-05-03 22:33 | 43.58012 | 3.96041 | 15 ft | 6 kts | 305° |
| 2026-05-03 22:33 | 43.58032 | 3.96002 | 15 ft | 4 kts | 305° |
| 2026-05-03 22:33 | 43.58029 | 3.95982 | 15 ft | 3 kts | 213° |
| 2026-05-03 22:34 | 43.58001 | 3.95962 | 15 ft | 3 kts | 206° |
| 2026-05-03 22:34 | 43.57989 | 3.95954 | 15 ft | 1 kts | 206° |
| 2026-05-03 22:34 | 43.57982 | 3.95949 | 15 ft | 1 kts | 207° |